Ellsberry, Ohio
Current Conditions -  °F | °C
As of 9:15 AM on Wednesday 28 Jan 2015 (Local Time) from KFGX Reporting Station
Clear Clear  
Wind Chill: 11°   Ceiling: Unl
Heat Index: 18°   Visibility: 10mi
Dew Point: 15°   Wind: 5mph
Humidity: 86%   Direction: 120°ESE
Pressure: 30.37"   Gusts: NA
Location:  38.6956°N, 83.7386°W
Report Text: KFGX 281415Z AUTO 12004KT 10SM CLR M08/M10 A3037 RMK AO2 T10771096
Loading
Personal Weather Stations






























Interactive Weather Map New forecast layout! Learn more

10-Day Weather Forecast

Advertisements
Track Severe Weather on mobile